sensor_id;sensor_type;location;lat;lon;timestamp;P1;durP1;ratioP1;P2;durP2;ratioP2
15624;SDS011;7912;51.376;6.126;2023-09-07T00:00:39;6.13;;;5.53;;
15624;SDS011;7912;51.376;6.126;2023-09-07T00:03:24;5.87;;;5.37;;
15624;SDS011;7912;51.376;6.126;2023-09-07T00:05:52;5.70;;;5.10;;
15624;SDS011;7912;51.376;6.126;2023-09-07T00:08:19;5.77;;;5.27;;
15624;SDS011;7912;51.376;6.126;2023-09-07T00:10:52;6.20;;;5.60;;
15624;SDS011;7912;51.376;6.126;2023-09-07T00:13:19;5.97;;;5.47;;
15624;SDS011;7912;51.376;6.126;2023-09-07T00:15:47;6.80;;;5.63;;
15624;SDS011;7912;51.376;6.126;2023-09-07T00:18:14;5.47;;;4.97;;
15624;SDS011;7912;51.376;6.126;2023-09-07T00:20:45;6.00;;;5.40;;
15624;SDS011;7912;51.376;6.126;2023-09-07T00:23:13;6.50;;;5.90;;
15624;SDS011;7912;51.376;6.126;2023-09-07T00:25:40;5.93;;;5.43;;
15624;SDS011;7912;51.376;6.126;2023-09-07T00:28:08;7.87;;;6.30;;
15624;SDS011;7912;51.376;6.126;2023-09-07T00:30:35;6.20;;;5.60;;
15624;SDS011;7912;51.376;6.126;2023-09-07T00:33:02;7.20;;;6.33;;
15624;SDS011;7912;51.376;6.126;2023-09-07T00:35:34;6.53;;;5.93;;
15624;SDS011;7912;51.376;6.126;2023-09-07T00:38:02;6.27;;;5.67;;
15624;SDS011;7912;51.376;6.126;2023-09-07T00:40:30;6.20;;;5.60;;
15624;SDS011;7912;51.376;6.126;2023-09-07T00:42:58;5.97;;;5.43;;
15624;SDS011;7912;51.376;6.126;2023-09-07T00:45:26;5.90;;;5.40;;
15624;SDS011;7912;51.376;6.126;2023-09-07T00:47:54;6.97;;;6.27;;
15624;SDS011;7912;51.376;6.126;2023-09-07T00:50:21;6.70;;;6.00;;
15624;SDS011;7912;51.376;6.126;2023-09-07T00:52:49;6.60;;;5.90;;
15624;SDS011;7912;51.376;6.126;2023-09-07T00:55:17;6.03;;;5.43;;
15624;SDS011;7912;51.376;6.126;2023-09-07T00:57:45;6.50;;;5.90;;
15624;SDS011;7912;51.376;6.126;2023-09-07T01:00:13;6.03;;;5.43;;
15624;SDS011;7912;51.376;6.126;2023-09-07T01:02:41;7.13;;;6.40;;
15624;SDS011;7912;51.376;6.126;2023-09-07T01:05:11;6.27;;;5.70;;
15624;SDS011;7912;51.376;6.126;2023-09-07T01:07:50;7.20;;;5.53;;
15624;SDS011;7912;51.376;6.126;2023-09-07T01:10:33;6.17;;;5.67;;
15624;SDS011;7912;51.376;6.126;2023-09-07T01:13:00;6.63;;;5.93;;
15624;SDS011;7912;51.376;6.126;2023-09-07T01:15:28;6.00;;;5.40;;
15624;SDS011;7912;51.376;6.126;2023-09-07T01:17:55;5.33;;;4.83;;
15624;SDS011;7912;51.376;6.126;2023-09-07T01:20:46;5.60;;;4.93;;
15624;SDS011;7912;51.376;6.126;2023-09-07T01:23:15;5.13;;;4.63;;
15624;SDS011;7912;51.376;6.126;2023-09-07T01:25:47;5.63;;;5.03;;
15624;SDS011;7912;51.376;6.126;2023-09-07T01:31:59;5.27;;;4.87;;
15624;SDS011;7912;51.376;6.126;2023-09-07T01:34:27;5.60;;;5.00;;
15624;SDS011;7912;51.376;6.126;2023-09-07T01:36:56;6.03;;;5.10;;
15624;SDS011;7912;51.376;6.126;2023-09-07T01:39:23;4.53;;;4.13;;
15624;SDS011;7912;51.376;6.126;2023-09-07T01:41:51;5.67;;;5.10;;
15624;SDS011;7912;51.376;6.126;2023-09-07T01:44:18;6.83;;;5.10;;
15624;SDS011;7912;51.376;6.126;2023-09-07T01:46:46;6.10;;;5.03;;
15624;SDS011;7912;51.376;6.126;2023-09-07T01:49:14;5.97;;;5.23;;
15624;SDS011;7912;51.376;6.126;2023-09-07T01:51:42;5.70;;;5.07;;
15624;SDS011;7912;51.376;6.126;2023-09-07T01:54:10;6.40;;;4.70;;
15624;SDS011;7912;51.376;6.126;2023-09-07T01:56:38;5.93;;;5.23;;
15624;SDS011;7912;51.376;6.126;2023-09-07T01:59:07;5.50;;;4.97;;
15624;SDS011;7912;51.376;6.126;2023-09-07T02:01:35;5.27;;;4.77;;
15624;SDS011;7912;51.376;6.126;2023-09-07T02:04:04;5.57;;;5.07;;
15624;SDS011;7912;51.376;6.126;2023-09-07T02:06:31;7.20;;;5.40;;
15624;SDS011;7912;51.376;6.126;2023-09-07T02:08:59;5.20;;;4.60;;
15624;SDS011;7912;51.376;6.126;2023-09-07T02:11:26;5.90;;;5.40;;
15624;SDS011;7912;51.376;6.126;2023-09-07T02:13:54;5.30;;;4.80;;
15624;SDS011;7912;51.376;6.126;2023-09-07T02:16:21;5.07;;;4.67;;
15624;SDS011;7912;51.376;6.126;2023-09-07T02:18:49;6.10;;;4.57;;
15624;SDS011;7912;51.376;6.126;2023-09-07T02:21:17;5.30;;;4.87;;
15624;SDS011;7912;51.376;6.126;2023-09-07T02:23:45;5.10;;;4.57;;
15624;SDS011;7912;51.376;6.126;2023-09-07T02:26:12;6.27;;;4.97;;
15624;SDS011;7912;51.376;6.126;2023-09-07T02:28:39;4.93;;;4.43;;
15624;SDS011;7912;51.376;6.126;2023-09-07T02:31:07;5.80;;;5.10;;
15624;SDS011;7912;51.376;6.126;2023-09-07T02:33:35;5.50;;;5.00;;
15624;SDS011;7912;51.376;6.126;2023-09-07T02:36:02;5.50;;;4.87;;
15624;SDS011;7912;51.376;6.126;2023-09-07T02:38:30;5.87;;;4.87;;
15624;SDS011;7912;51.376;6.126;2023-09-07T02:40:58;5.23;;;4.40;;
15624;SDS011;7912;51.376;6.126;2023-09-07T02:43:25;7.50;;;5.00;;
15624;SDS011;7912;51.376;6.126;2023-09-07T02:45:52;5.43;;;4.67;;
15624;SDS011;7912;51.376;6.126;2023-09-07T02:48:21;5.27;;;4.77;;
15624;SDS011;7912;51.376;6.126;2023-09-07T02:50:48;5.37;;;4.87;;
15624;SDS011;7912;51.376;6.126;2023-09-07T02:53:17;6.20;;;4.50;;
15624;SDS011;7912;51.376;6.126;2023-09-07T02:55:45;5.30;;;4.80;;
15624;SDS011;7912;51.376;6.126;2023-09-07T02:58:12;5.33;;;4.40;;
15624;SDS011;7912;51.376;6.126;2023-09-07T03:00:43;4.80;;;4.40;;
15624;SDS011;7912;51.376;6.126;2023-09-07T03:03:13;5.40;;;4.90;;
15624;SDS011;7912;51.376;6.126;2023-09-07T03:05:41;6.87;;;5.10;;
15624;SDS011;7912;51.376;6.126;2023-09-07T03:08:12;5.27;;;4.50;;
15624;SDS011;7912;51.376;6.126;2023-09-07T03:10:39;4.83;;;4.33;;
15624;SDS011;7912;51.376;6.126;2023-09-07T03:13:09;5.20;;;4.70;;
15624;SDS011;7912;51.376;6.126;2023-09-07T03:15:36;5.03;;;4.60;;
15624;SDS011;7912;51.376;6.126;2023-09-07T03:18:04;5.00;;;4.60;;
15624;SDS011;7912;51.376;6.126;2023-09-07T03:20:32;6.23;;;4.87;;
15624;SDS011;7912;51.376;6.126;2023-09-07T03:23:00;5.00;;;4.50;;
15624;SDS011;7912;51.376;6.126;2023-09-07T03:25:28;5.17;;;4.77;;
15624;SDS011;7912;51.376;6.126;2023-09-07T03:27:56;5.33;;;4.57;;
15624;SDS011;7912;51.376;6.126;2023-09-07T03:30:23;5.47;;;4.87;;
15624;SDS011;7912;51.376;6.126;2023-09-07T03:32:51;5.97;;;5.13;;
15624;SDS011;7912;51.376;6.126;2023-09-07T03:35:19;5.23;;;4.67;;
15624;SDS011;7912;51.376;6.126;2023-09-07T03:37:46;5.47;;;4.90;;
15624;SDS011;7912;51.376;6.126;2023-09-07T03:40:14;4.90;;;4.50;;
15624;SDS011;7912;51.376;6.126;2023-09-07T03:42:41;5.67;;;4.80;;
15624;SDS011;7912;51.376;6.126;2023-09-07T03:45:09;6.47;;;5.20;;
15624;SDS011;7912;51.376;6.126;2023-09-07T03:47:37;6.10;;;4.93;;
15624;SDS011;7912;51.376;6.126;2023-09-07T03:50:05;5.63;;;5.03;;
15624;SDS011;7912;51.376;6.126;2023-09-07T03:52:33;6.40;;;5.80;;
15624;SDS011;7912;51.376;6.126;2023-09-07T03:55:02;6.07;;;5.47;;
15624;SDS011;7912;51.376;6.126;2023-09-07T03:57:30;5.67;;;5.17;;
15624;SDS011;7912;51.376;6.126;2023-09-07T03:59:57;5.23;;;4.80;;
15624;SDS011;7912;51.376;6.126;2023-09-07T04:02:25;7.53;;;5.17;;
15624;SDS011;7912;51.376;6.126;2023-09-07T04:04:53;5.87;;;5.27;;
15624;SDS011;7912;51.376;6.126;2023-09-07T04:07:24;7.57;;;5.80;;
15624;SDS011;7912;51.376;6.126;2023-09-07T04:09:51;6.03;;;5.43;;
15624;SDS011;7912;51.376;6.126;2023-09-07T04:12:20;5.80;;;5.17;;
15624;SDS011;7912;51.376;6.126;2023-09-07T04:14:47;5.50;;;5.00;;
15624;SDS011;7912;51.376;6.126;2023-09-07T04:17:15;6.87;;;5.23;;
15624;SDS011;7912;51.376;6.126;2023-09-07T04:19:42;5.70;;;5.17;;
15624;SDS011;7912;51.376;6.126;2023-09-07T04:22:10;5.33;;;4.83;;
15624;SDS011;7912;51.376;6.126;2023-09-07T04:24:38;5.77;;;5.23;;
15624;SDS011;7912;51.376;6.126;2023-09-07T04:27:06;6.00;;;5.30;;
15624;SDS011;7912;51.376;6.126;2023-09-07T04:29:33;6.07;;;4.83;;
15624;SDS011;7912;51.376;6.126;2023-09-07T04:32:02;5.17;;;4.73;;
15624;SDS011;7912;51.376;6.126;2023-09-07T04:34:29;7.60;;;5.60;;
15624;SDS011;7912;51.376;6.126;2023-09-07T04:36:58;6.67;;;5.07;;
15624;SDS011;7912;51.376;6.126;2023-09-07T04:39:26;5.07;;;4.67;;
15624;SDS011;7912;51.376;6.126;2023-09-07T04:41:53;5.53;;;5.03;;
15624;SDS011;7912;51.376;6.126;2023-09-07T04:44:20;5.50;;;5.00;;
15624;SDS011;7912;51.376;6.126;2023-09-07T04:46:48;5.10;;;4.70;;
15624;SDS011;7912;51.376;6.126;2023-09-07T04:49:22;5.97;;;5.40;;
15624;SDS011;7912;51.376;6.126;2023-09-07T04:51:53;7.00;;;5.43;;
15624;SDS011;7912;51.376;6.126;2023-09-07T04:54:24;6.50;;;5.70;;
15624;SDS011;7912;51.376;6.126;2023-09-07T04:56:53;6.57;;;5.57;;
15624;SDS011;7912;51.376;6.126;2023-09-07T04:59:21;5.57;;;5.10;;
15624;SDS011;7912;51.376;6.126;2023-09-07T05:01:49;5.90;;;5.27;;
15624;SDS011;7912;51.376;6.126;2023-09-07T05:04:19;6.90;;;5.50;;
15624;SDS011;7912;51.376;6.126;2023-09-07T05:06:47;6.30;;;5.40;;
15624;SDS011;7912;51.376;6.126;2023-09-07T05:09:14;7.53;;;5.40;;
15624;SDS011;7912;51.376;6.126;2023-09-07T05:11:49;6.27;;;5.60;;
15624;SDS011;7912;51.376;6.126;2023-09-07T05:14:17;6.77;;;5.27;;
15624;SDS011;7912;51.376;6.126;2023-09-07T05:16:45;6.50;;;5.80;;
15624;SDS011;7912;51.376;6.126;2023-09-07T05:19:13;6.63;;;5.90;;
15624;SDS011;7912;51.376;6.126;2023-09-07T05:21:41;6.77;;;5.73;;
15624;SDS011;7912;51.376;6.126;2023-09-07T05:24:14;7.03;;;6.07;;
15624;SDS011;7912;51.376;6.126;2023-09-07T05:26:45;6.13;;;5.30;;
15624;SDS011;7912;51.376;6.126;2023-09-07T05:29:13;6.73;;;6.03;;
15624;SDS011;7912;51.376;6.126;2023-09-07T05:31:41;6.30;;;5.63;;
15624;SDS011;7912;51.376;6.126;2023-09-07T05:34:08;6.93;;;5.83;;
15624;SDS011;7912;51.376;6.126;2023-09-07T05:36:37;6.13;;;5.53;;
15624;SDS011;7912;51.376;6.126;2023-09-07T05:39:04;7.40;;;5.97;;
15624;SDS011;7912;51.376;6.126;2023-09-07T05:41:32;7.23;;;6.53;;
15624;SDS011;7912;51.376;6.126;2023-09-07T05:44:00;7.47;;;6.63;;
15624;SDS011;7912;51.376;6.126;2023-09-07T05:46:27;6.77;;;6.13;;
15624;SDS011;7912;51.376;6.126;2023-09-07T05:48:54;7.97;;;6.50;;
15624;SDS011;7912;51.376;6.126;2023-09-07T05:51:22;8.67;;;6.83;;
15624;SDS011;7912;51.376;6.126;2023-09-07T05:53:49;7.33;;;6.70;;
15624;SDS011;7912;51.376;6.126;2023-09-07T05:56:17;6.73;;;6.00;;
15624;SDS011;7912;51.376;6.126;2023-09-07T05:58:44;6.97;;;6.23;;
15624;SDS011;7912;51.376;6.126;2023-09-07T06:01:12;7.53;;;6.73;;
15624;SDS011;7912;51.376;6.126;2023-09-07T06:03:39;9.13;;;6.00;;
15624;SDS011;7912;51.376;6.126;2023-09-07T06:06:08;7.17;;;6.40;;
15624;SDS011;7912;51.376;6.126;2023-09-07T06:08:35;6.50;;;5.90;;
15624;SDS011;7912;51.376;6.126;2023-09-07T06:11:02;7.00;;;6.10;;
15624;SDS011;7912;51.376;6.126;2023-09-07T06:13:30;8.83;;;7.00;;
15624;SDS011;7912;51.376;6.126;2023-09-07T06:15:57;7.10;;;6.33;;
15624;SDS011;7912;51.376;6.126;2023-09-07T06:18:27;7.50;;;6.77;;
15624;SDS011;7912;51.376;6.126;2023-09-07T06:20:55;7.57;;;6.87;;
15624;SDS011;7912;51.376;6.126;2023-09-07T06:23:22;6.80;;;6.20;;
15624;SDS011;7912;51.376;6.126;2023-09-07T06:25:50;7.27;;;6.57;;
15624;SDS011;7912;51.376;6.126;2023-09-07T06:28:17;7.10;;;6.40;;
15624;SDS011;7912;51.376;6.126;2023-09-07T06:30:45;7.93;;;6.43;;
15624;SDS011;7912;51.376;6.126;2023-09-07T06:33:12;6.53;;;5.93;;
15624;SDS011;7912;51.376;6.126;2023-09-07T06:35:40;7.23;;;6.53;;
15624;SDS011;7912;51.376;6.126;2023-09-07T06:38:07;7.20;;;5.90;;
15624;SDS011;7912;51.376;6.126;2023-09-07T06:43:41;5.93;;;5.30;;
15624;SDS011;7912;51.376;6.126;2023-09-07T06:46:09;6.27;;;5.67;;
15624;SDS011;7912;51.376;6.126;2023-09-07T06:48:36;7.13;;;5.93;;
15624;SDS011;7912;51.376;6.126;2023-09-07T06:51:04;7.47;;;5.60;;
15624;SDS011;7912;51.376;6.126;2023-09-07T06:53:34;6.00;;;5.50;;
15624;SDS011;7912;51.376;6.126;2023-09-07T06:56:21;5.60;;;5.10;;
15624;SDS011;7912;51.376;6.126;2023-09-07T06:58:55;6.87;;;5.03;;
15624;SDS011;7912;51.376;6.126;2023-09-07T07:01:23;7.80;;;5.50;;
15624;SDS011;7912;51.376;6.126;2023-09-07T07:03:50;6.03;;;5.53;;
15624;SDS011;7912;51.376;6.126;2023-09-07T07:06:18;5.97;;;5.37;;
15624;SDS011;7912;51.376;6.126;2023-09-07T07:08:45;6.47;;;5.13;;
15624;SDS011;7912;51.376;6.126;2023-09-07T07:11:15;5.87;;;5.27;;
15624;SDS011;7912;51.376;6.126;2023-09-07T07:13:43;5.43;;;4.87;;
15624;SDS011;7912;51.376;6.126;2023-09-07T07:16:13;5.97;;;5.47;;
15624;SDS011;7912;51.376;6.126;2023-09-07T07:18:40;6.03;;;5.53;;
15624;SDS011;7912;51.376;6.126;2023-09-07T07:21:09;6.60;;;5.00;;
15624;SDS011;7912;51.376;6.126;2023-09-07T07:23:37;6.40;;;5.73;;
15624;SDS011;7912;51.376;6.126;2023-09-07T07:26:04;6.43;;;5.13;;
15624;SDS011;7912;51.376;6.126;2023-09-07T07:28:32;6.57;;;5.10;;
15624;SDS011;7912;51.376;6.126;2023-09-07T07:31:09;6.23;;;5.07;;
15624;SDS011;7912;51.376;6.126;2023-09-07T07:33:37;6.37;;;4.70;;
15624;SDS011;7912;51.376;6.126;2023-09-07T07:36:04;5.10;;;4.70;;
15624;SDS011;7912;51.376;6.126;2023-09-07T07:38:32;5.27;;;4.77;;
15624;SDS011;7912;51.376;6.126;2023-09-07T07:41:03;5.70;;;4.80;;
15624;SDS011;7912;51.376;6.126;2023-09-07T07:43:32;5.07;;;4.57;;
15624;SDS011;7912;51.376;6.126;2023-09-07T07:46:01;6.37;;;4.57;;
15624;SDS011;7912;51.376;6.126;2023-09-07T07:48:28;5.37;;;4.90;;
15624;SDS011;7912;51.376;6.126;2023-09-07T07:50:56;5.50;;;5.00;;
15624;SDS011;7912;51.376;6.126;2023-09-07T07:53:26;7.43;;;4.67;;
15624;SDS011;7912;51.376;6.126;2023-09-07T07:55:53;4.60;;;4.20;;
15624;SDS011;7912;51.376;6.126;2023-09-07T07:58:22;6.30;;;4.77;;
15624;SDS011;7912;51.376;6.126;2023-09-07T08:00:50;4.97;;;4.47;;
15624;SDS011;7912;51.376;6.126;2023-09-07T08:03:17;5.10;;;4.60;;
15624;SDS011;7912;51.376;6.126;2023-09-07T08:05:47;5.27;;;4.77;;
15624;SDS011;7912;51.376;6.126;2023-09-07T08:08:15;4.90;;;4.40;;
15624;SDS011;7912;51.376;6.126;2023-09-07T08:10:42;5.50;;;5.00;;
15624;SDS011;7912;51.376;6.126;2023-09-07T08:13:12;6.03;;;4.30;;
15624;SDS011;7912;51.376;6.126;2023-09-07T08:15:42;4.97;;;4.57;;
15624;SDS011;7912;51.376;6.126;2023-09-07T08:18:10;5.37;;;4.87;;
15624;SDS011;7912;51.376;6.126;2023-09-07T08:20:38;8.07;;;4.80;;
15624;SDS011;7912;51.376;6.126;2023-09-07T08:23:07;5.63;;;4.20;;
15624;SDS011;7912;51.376;6.126;2023-09-07T08:25:36;5.67;;;4.40;;
15624;SDS011;7912;51.376;6.126;2023-09-07T08:28:06;4.47;;;4.07;;
15624;SDS011;7912;51.376;6.126;2023-09-07T08:30:34;4.57;;;4.17;;
15624;SDS011;7912;51.376;6.126;2023-09-07T08:33:01;4.50;;;4.10;;
15624;SDS011;7912;51.376;6.126;2023-09-07T08:35:31;5.13;;;4.33;;
15624;SDS011;7912;51.376;6.126;2023-09-07T08:38:01;4.60;;;4.20;;
15624;SDS011;7912;51.376;6.126;2023-09-07T08:40:32;4.63;;;4.23;;
15624;SDS011;7912;51.376;6.126;2023-09-07T08:43:03;5.47;;;4.47;;
15624;SDS011;7912;51.376;6.126;2023-09-07T08:45:32;5.83;;;4.77;;
15624;SDS011;7912;51.376;6.126;2023-09-07T08:51:09;6.77;;;4.47;;
15624;SDS011;7912;51.376;6.126;2023-09-07T08:53:41;6.63;;;5.00;;
15624;SDS011;7912;51.376;6.126;2023-09-07T08:56:13;5.13;;;4.63;;
15624;SDS011;7912;51.376;6.126;2023-09-07T08:58:42;5.17;;;4.70;;
15624;SDS011;7912;51.376;6.126;2023-09-07T09:01:16;5.27;;;4.50;;
15624;SDS011;7912;51.376;6.126;2023-09-07T09:03:48;6.03;;;4.87;;
15624;SDS011;7912;51.376;6.126;2023-09-07T09:06:21;6.13;;;4.47;;
15624;SDS011;7912;51.376;6.126;2023-09-07T09:08:50;4.90;;;4.47;;
15624;SDS011;7912;51.376;6.126;2023-09-07T09:11:24;4.43;;;4.03;;
15624;SDS011;7912;51.376;6.126;2023-09-07T09:13:56;4.67;;;4.00;;
15624;SDS011;7912;51.376;6.126;2023-09-07T09:20:31;4.93;;;4.50;;
15624;SDS011;7912;51.376;6.126;2023-09-07T09:23:10;4.77;;;4.37;;
15624;SDS011;7912;51.376;6.126;2023-09-07T09:25:42;4.87;;;4.47;;
15624;SDS011;7912;51.376;6.126;2023-09-07T09:28:19;4.40;;;4.03;;
15624;SDS011;7912;51.376;6.126;2023-09-07T09:30:48;6.37;;;4.47;;
15624;SDS011;7912;51.376;6.126;2023-09-07T09:33:21;4.50;;;4.07;;
15624;SDS011;7912;51.376;6.126;2023-09-07T09:35:53;4.63;;;4.23;;
15624;SDS011;7912;51.376;6.126;2023-09-07T09:38:24;4.70;;;3.83;;
15624;SDS011;7912;51.376;6.126;2023-09-07T09:40:52;4.63;;;4.20;;
15624;SDS011;7912;51.376;6.126;2023-09-07T09:43:21;4.00;;;3.70;;
15624;SDS011;7912;51.376;6.126;2023-09-07T09:45:49;4.20;;;3.80;;
15624;SDS011;7912;51.376;6.126;2023-09-07T09:48:21;4.20;;;3.90;;
15624;SDS011;7912;51.376;6.126;2023-09-07T09:50:50;4.77;;;4.37;;
15624;SDS011;7912;51.376;6.126;2023-09-07T09:53:18;4.40;;;4.10;;
15624;SDS011;7912;51.376;6.126;2023-09-07T09:55:57;4.60;;;4.20;;
15624;SDS011;7912;51.376;6.126;2023-09-07T09:58:28;4.70;;;4.33;;
15624;SDS011;7912;51.376;6.126;2023-09-07T10:03:46;4.50;;;4.10;;
15624;SDS011;7912;51.376;6.126;2023-09-07T10:06:22;5.17;;;4.40;;
15624;SDS011;7912;51.376;6.126;2023-09-07T10:08:58;4.57;;;4.17;;
15624;SDS011;7912;51.376;6.126;2023-09-07T10:11:36;5.60;;;4.07;;
15624;SDS011;7912;51.376;6.126;2023-09-07T10:14:05;4.70;;;4.07;;
15624;SDS011;7912;51.376;6.126;2023-09-07T10:16:50;4.67;;;4.23;;
15624;SDS011;7912;51.376;6.126;2023-09-07T10:19:23;4.80;;;4.40;;
15624;SDS011;7912;51.376;6.126;2023-09-07T10:21:53;4.75;;;4.35;;
15624;SDS011;7912;51.376;6.126;2023-09-07T10:27:08;5.13;;;4.38;;
15624;SDS011;7912;51.376;6.126;2023-09-07T10:29:43;5.00;;;4.60;;
15624;SDS011;7912;51.376;6.126;2023-09-07T10:32:22;4.10;;;3.80;;
15624;SDS011;7912;51.376;6.126;2023-09-07T10:34:52;4.55;;;4.15;;
15624;SDS011;7912;51.376;6.126;2023-09-07T10:37:27;4.43;;;4.03;;
15624;SDS011;7912;51.376;6.126;2023-09-07T10:39:57;4.23;;;3.83;;
15624;SDS011;7912;51.376;6.126;2023-09-07T10:42:25;4.05;;;3.72;;
15624;SDS011;7912;51.376;6.126;2023-09-07T10:44:53;4.50;;;4.05;;
15624;SDS011;7912;51.376;6.126;2023-09-07T10:47:21;4.35;;;3.95;;
15624;SDS011;7912;51.376;6.126;2023-09-07T10:49:48;4.22;;;3.83;;
15624;SDS011;7912;51.376;6.126;2023-09-07T10:52:16;5.75;;;4.35;;
15624;SDS011;7912;51.376;6.126;2023-09-07T10:54:44;6.07;;;4.22;;
15624;SDS011;7912;51.376;6.126;2023-09-07T10:57:23;6.07;;;4.13;;
15624;SDS011;7912;51.376;6.126;2023-09-07T10:59:50;3.92;;;3.63;;
15624;SDS011;7912;51.376;6.126;2023-09-07T11:02:22;4.38;;;3.85;;
15624;SDS011;7912;51.376;6.126;2023-09-07T11:04:54;4.68;;;3.72;;
15624;SDS011;7912;51.376;6.126;2023-09-07T11:07:22;3.80;;;3.50;;
15624;SDS011;7912;51.376;6.126;2023-09-07T11:09:51;4.47;;;3.92;;
15624;SDS011;7912;51.376;6.126;2023-09-07T11:12:21;4.05;;;3.72;;
15624;SDS011;7912;51.376;6.126;2023-09-07T11:14:53;4.18;;;3.53;;
15624;SDS011;7912;51.376;6.126;2023-09-07T11:17:27;3.90;;;3.60;;
15624;SDS011;7912;51.376;6.126;2023-09-07T11:19:55;4.70;;;4.10;;
15624;SDS011;7912;51.376;6.126;2023-09-07T11:22:23;4.10;;;3.70;;
15624;SDS011;7912;51.376;6.126;2023-09-07T11:24:50;3.97;;;3.67;;
15624;SDS011;7912;51.376;6.126;2023-09-07T11:27:18;4.18;;;3.75;;
15624;SDS011;7912;51.376;6.126;2023-09-07T11:29:52;5.55;;;3.75;;
15624;SDS011;7912;51.376;6.126;2023-09-07T11:32:19;4.15;;;3.75;;
15624;SDS011;7912;51.376;6.126;2023-09-07T11:34:48;4.15;;;3.78;;
15624;SDS011;7912;51.376;6.126;2023-09-07T11:37:25;4.07;;;3.75;;
15624;SDS011;7912;51.376;6.126;2023-09-07T11:39:53;4.22;;;3.83;;
15624;SDS011;7912;51.376;6.126;2023-09-07T11:42:21;4.43;;;3.80;;
15624;SDS011;7912;51.376;6.126;2023-09-07T11:44:49;4.18;;;3.88;;
15624;SDS011;7912;51.376;6.126;2023-09-07T11:47:16;3.78;;;3.40;;
15624;SDS011;7912;51.376;6.126;2023-09-07T11:49:44;4.00;;;3.58;;
15624;SDS011;7912;51.376;6.126;2023-09-07T11:52:18;4.10;;;3.70;;
15624;SDS011;7912;51.376;6.126;2023-09-07T11:54:46;4.13;;;3.83;;
15624;SDS011;7912;51.376;6.126;2023-09-07T11:57:14;7.57;;;3.88;;
15624;SDS011;7912;51.376;6.126;2023-09-07T11:59:44;3.53;;;3.22;;
15624;SDS011;7912;51.376;6.126;2023-09-07T12:02:24;3.42;;;3.13;;
15624;SDS011;7912;51.376;6.126;2023-09-07T12:04:54;3.85;;;3.42;;
15624;SDS011;7912;51.376;6.126;2023-09-07T12:07:25;3.65;;;3.30;;
15624;SDS011;7912;51.376;6.126;2023-09-07T12:09:56;3.70;;;3.40;;
15624;SDS011;7912;51.376;6.126;2023-09-07T12:12:28;3.65;;;3.35;;
15624;SDS011;7912;51.376;6.126;2023-09-07T12:14:56;3.70;;;3.40;;
15624;SDS011;7912;51.376;6.126;2023-09-07T12:17:24;3.70;;;3.40;;
15624;SDS011;7912;51.376;6.126;2023-09-07T12:19:52;3.40;;;3.15;;
15624;SDS011;7912;51.376;6.126;2023-09-07T12:22:20;3.80;;;3.50;;
15624;SDS011;7912;51.376;6.126;2023-09-07T12:24:48;4.00;;;3.70;;
15624;SDS011;7912;51.376;6.126;2023-09-07T12:27:38;5.97;;;3.78;;
15624;SDS011;7912;51.376;6.126;2023-09-07T12:30:21;3.90;;;3.60;;
15624;SDS011;7912;51.376;6.126;2023-09-07T12:32:55;3.75;;;3.45;;
15624;SDS011;7912;51.376;6.126;2023-09-07T12:35:23;3.65;;;3.38;;
15624;SDS011;7912;51.376;6.126;2023-09-07T12:37:50;4.22;;;3.30;;
15624;SDS011;7912;51.376;6.126;2023-09-07T12:40:23;3.58;;;3.28;;
15624;SDS011;7912;51.376;6.126;2023-09-07T12:42:54;3.95;;;3.65;;
15624;SDS011;7912;51.376;6.126;2023-09-07T12:45:22;3.38;;;3.08;;
15624;SDS011;7912;51.376;6.126;2023-09-07T12:48:07;3.92;;;3.55;;
15624;SDS011;7912;51.376;6.126;2023-09-07T12:50:38;4.07;;;3.72;;
15624;SDS011;7912;51.376;6.126;2023-09-07T12:56:05;3.72;;;3.30;;
15624;SDS011;7912;51.376;6.126;2023-09-07T12:58:33;3.60;;;3.33;;
15624;SDS011;7912;51.376;6.126;2023-09-07T13:01:01;3.50;;;3.20;;
15624;SDS011;7912;51.376;6.126;2023-09-07T13:03:28;3.22;;;3.03;;
15624;SDS011;7912;51.376;6.126;2023-09-07T13:05:56;3.85;;;3.30;;
15624;SDS011;7912;51.376;6.126;2023-09-07T13:08:24;3.67;;;3.38;;
15624;SDS011;7912;51.376;6.126;2023-09-07T13:10:52;3.70;;;3.40;;
15624;SDS011;7912;51.376;6.126;2023-09-07T13:13:20;3.83;;;3.60;;
15624;SDS011;7912;51.376;6.126;2023-09-07T13:15:48;3.97;;;3.58;;
15624;SDS011;7912;51.376;6.126;2023-09-07T13:18:19;3.92;;;3.63;;
15624;SDS011;7912;51.376;6.126;2023-09-07T13:20:47;3.67;;;3.17;;
15624;SDS011;7912;51.376;6.126;2023-09-07T13:23:17;4.20;;;3.80;;
15624;SDS011;7912;51.376;6.126;2023-09-07T13:25:47;3.80;;;3.50;;
15624;SDS011;7912;51.376;6.126;2023-09-07T13:28:14;3.50;;;3.20;;
15624;SDS011;7912;51.376;6.126;2023-09-07T13:30:45;4.05;;;3.53;;
15624;SDS011;7912;51.376;6.126;2023-09-07T13:33:13;3.60;;;3.30;;
15624;SDS011;7912;51.376;6.126;2023-09-07T13:35:42;3.75;;;3.42;;
15624;SDS011;7912;51.376;6.126;2023-09-07T13:38:12;4.28;;;3.80;;
15624;SDS011;7912;51.376;6.126;2023-09-07T13:40:43;3.97;;;3.67;;
15624;SDS011;7912;51.376;6.126;2023-09-07T13:43:11;3.88;;;3.58;;
15624;SDS011;7912;51.376;6.126;2023-09-07T13:45:39;3.95;;;3.65;;
15624;SDS011;7912;51.376;6.126;2023-09-07T13:48:06;4.28;;;3.92;;
15624;SDS011;7912;51.376;6.126;2023-09-07T13:50:34;3.65;;;3.35;;
15624;SDS011;7912;51.376;6.126;2023-09-07T13:53:02;4.00;;;3.70;;
15624;SDS011;7912;51.376;6.126;2023-09-07T13:55:29;4.20;;;3.85;;
15624;SDS011;7912;51.376;6.126;2023-09-07T13:57:57;4.57;;;3.60;;
15624;SDS011;7912;51.376;6.126;2023-09-07T14:00:25;4.18;;;3.80;;
15624;SDS011;7912;51.376;6.126;2023-09-07T14:02:56;3.80;;;3.60;;
15624;SDS011;7912;51.376;6.126;2023-09-07T14:08:18;3.92;;;3.63;;
15624;SDS011;7912;51.376;6.126;2023-09-07T14:10:50;3.90;;;3.60;;
15624;SDS011;7912;51.376;6.126;2023-09-07T14:13:18;3.88;;;3.58;;
15624;SDS011;7912;51.376;6.126;2023-09-07T14:15:46;5.03;;;4.03;;
15624;SDS011;7912;51.376;6.126;2023-09-07T14:18:14;3.85;;;3.55;;
15624;SDS011;7912;51.376;6.126;2023-09-07T14:20:41;3.65;;;3.35;;
15624;SDS011;7912;51.376;6.126;2023-09-07T14:23:09;4.00;;;3.70;;
15624;SDS011;7912;51.376;6.126;2023-09-07T14:25:36;3.67;;;3.17;;
15624;SDS011;7912;51.376;6.126;2023-09-07T14:28:08;3.58;;;3.35;;
15624;SDS011;7912;51.376;6.126;2023-09-07T14:30:38;3.70;;;3.40;;
15624;SDS011;7912;51.376;6.126;2023-09-07T14:33:06;3.85;;;3.55;;
15624;SDS011;7912;51.376;6.126;2023-09-07T14:35:34;4.00;;;3.60;;
15624;SDS011;7912;51.376;6.126;2023-09-07T14:38:06;4.00;;;3.70;;
15624;SDS011;7912;51.376;6.126;2023-09-07T14:40:33;3.85;;;3.55;;
15624;SDS011;7912;51.376;6.126;2023-09-07T14:43:01;5.03;;;3.90;;
15624;SDS011;7912;51.376;6.126;2023-09-07T14:45:30;3.60;;;3.30;;
15624;SDS011;7912;51.376;6.126;2023-09-07T14:47:58;4.32;;;3.92;;
15624;SDS011;7912;51.376;6.126;2023-09-07T14:50:25;3.97;;;3.53;;
15624;SDS011;7912;51.376;6.126;2023-09-07T14:52:53;3.75;;;3.55;;
15624;SDS011;7912;51.376;6.126;2023-09-07T14:55:21;3.88;;;3.50;;
15624;SDS011;7912;51.376;6.126;2023-09-07T14:57:48;3.90;;;3.60;;
15624;SDS011;7912;51.376;6.126;2023-09-07T15:00:16;4.00;;;3.70;;
15624;SDS011;7912;51.376;6.126;2023-09-07T15:02:44;3.80;;;3.50;;
15624;SDS011;7912;51.376;6.126;2023-09-07T15:05:11;4.25;;;3.85;;
15624;SDS011;7912;51.376;6.126;2023-09-07T15:07:39;3.70;;;3.40;;
15624;SDS011;7912;51.376;6.126;2023-09-07T15:10:07;3.83;;;3.50;;
15624;SDS011;7912;51.376;6.126;2023-09-07T15:12:34;4.22;;;3.83;;
15624;SDS011;7912;51.376;6.126;2023-09-07T15:15:02;3.83;;;3.53;;
15624;SDS011;7912;51.376;6.126;2023-09-07T15:17:30;4.05;;;3.75;;
15624;SDS011;7912;51.376;6.126;2023-09-07T15:19:58;4.05;;;3.75;;
15624;SDS011;7912;51.376;6.126;2023-09-07T15:22:25;4.30;;;3.88;;
15624;SDS011;7912;51.376;6.126;2023-09-07T15:24:53;6.03;;;3.97;;
15624;SDS011;7912;51.376;6.126;2023-09-07T15:27:22;3.67;;;3.40;;
15624;SDS011;7912;51.376;6.126;2023-09-07T15:29:49;4.20;;;3.80;;
15624;SDS011;7912;51.376;6.126;2023-09-07T15:32:19;4.05;;;3.58;;
15624;SDS011;7912;51.376;6.126;2023-09-07T15:34:49;6.10;;;3.75;;
15624;SDS011;7912;51.376;6.126;2023-09-07T15:37:17;4.10;;;3.70;;